sensor_id;sensor_type;location;lat;lon;timestamp;temperature;humidity
7331;DHT22;3706;49.198;7.064;2022-10-16T00:00:47;14.70;99.90
7331;DHT22;3706;49.198;7.064;2022-10-16T00:03:14;14.70;99.90
7331;DHT22;3706;49.198;7.064;2022-10-16T00:05:42;14.70;99.90
7331;DHT22;3706;49.198;7.064;2022-10-16T00:08:11;14.60;99.90
7331;DHT22;3706;49.198;7.064;2022-10-16T00:10:39;14.60;99.90
7331;DHT22;3706;49.198;7.064;2022-10-16T00:13:08;14.60;99.90
7331;DHT22;3706;49.198;7.064;2022-10-16T00:15:36;14.60;99.90
7331;DHT22;3706;49.198;7.064;2022-10-16T00:18:05;14.60;99.90
7331;DHT22;3706;49.198;7.064;2022-10-16T00:20:34;14.60;99.90
7331;DHT22;3706;49.198;7.064;2022-10-16T00:23:02;14.60;99.90
7331;DHT22;3706;49.198;7.064;2022-10-16T00:25:29;14.60;99.90
7331;DHT22;3706;49.198;7.064;2022-10-16T00:27:58;14.60;99.90
7331;DHT22;3706;49.198;7.064;2022-10-16T00:30:26;14.60;99.90
7331;DHT22;3706;49.198;7.064;2022-10-16T00:32:54;14.60;99.90
7331;DHT22;3706;49.198;7.064;2022-10-16T00:35:21;14.60;99.90
7331;DHT22;3706;49.198;7.064;2022-10-16T00:37:48;14.50;99.90
7331;DHT22;3706;49.198;7.064;2022-10-16T00:40:15;14.50;99.90
7331;DHT22;3706;49.198;7.064;2022-10-16T00:42:42;14.50;99.90
7331;DHT22;3706;49.198;7.064;2022-10-16T00:45:10;14.50;99.90
7331;DHT22;3706;49.198;7.064;2022-10-16T00:47:41;14.50;99.90
7331;DHT22;3706;49.198;7.064;2022-10-16T00:50:16;14.50;99.90
7331;DHT22;3706;49.198;7.064;2022-10-16T00:52:46;14.50;99.90
7331;DHT22;3706;49.198;7.064;2022-10-16T00:55:15;14.50;99.90
7331;DHT22;3706;49.198;7.064;2022-10-16T00:57:42;14.50;99.90
7331;DHT22;3706;49.198;7.064;2022-10-16T01:00:12;14.50;99.90
7331;DHT22;3706;49.198;7.064;2022-10-16T01:02:40;14.50;99.90
7331;DHT22;3706;49.198;7.064;2022-10-16T01:05:08;14.50;99.90
7331;DHT22;3706;49.198;7.064;2022-10-16T01:07:42;14.40;99.90
7331;DHT22;3706;49.198;7.064;2022-10-16T01:10:18;14.40;99.90
7331;DHT22;3706;49.198;7.064;2022-10-16T01:12:51;14.40;99.90
7331;DHT22;3706;49.198;7.064;2022-10-16T01:15:25;14.40;99.90
7331;DHT22;3706;49.198;7.064;2022-10-16T01:17:59;14.40;99.90
7331;DHT22;3706;49.198;7.064;2022-10-16T01:20:30;14.40;99.90
7331;DHT22;3706;49.198;7.064;2022-10-16T01:23:15;14.40;99.90
7331;DHT22;3706;49.198;7.064;2022-10-16T01:26:02;14.30;99.90
7331;DHT22;3706;49.198;7.064;2022-10-16T01:28:40;14.30;99.90
7331;DHT22;3706;49.198;7.064;2022-10-16T01:31:09;14.30;99.90
7331;DHT22;3706;49.198;7.064;2022-10-16T01:33:41;14.30;99.90
7331;DHT22;3706;49.198;7.064;2022-10-16T01:36:11;14.30;99.90
7331;DHT22;3706;49.198;7.064;2022-10-16T01:38:40;14.30;99.90
7331;DHT22;3706;49.198;7.064;2022-10-16T01:41:14;14.30;99.90
7331;DHT22;3706;49.198;7.064;2022-10-16T01:43:46;14.20;99.90
7331;DHT22;3706;49.198;7.064;2022-10-16T01:46:18;14.20;99.90
7331;DHT22;3706;49.198;7.064;2022-10-16T01:48:47;14.20;99.90
7331;DHT22;3706;49.198;7.064;2022-10-16T01:51:15;14.20;99.90
7331;DHT22;3706;49.198;7.064;2022-10-16T01:53:46;14.20;99.90
7331;DHT22;3706;49.198;7.064;2022-10-16T01:56:15;14.20;99.90
7331;DHT22;3706;49.198;7.064;2022-10-16T01:58:49;14.20;99.90
7331;DHT22;3706;49.198;7.064;2022-10-16T02:01:19;14.20;99.90
7331;DHT22;3706;49.198;7.064;2022-10-16T02:03:50;14.20;99.90
7331;DHT22;3706;49.198;7.064;2022-10-16T02:06:18;14.10;99.90
7331;DHT22;3706;49.198;7.064;2022-10-16T02:08:46;14.10;99.90
7331;DHT22;3706;49.198;7.064;2022-10-16T02:11:13;14.10;99.90
7331;DHT22;3706;49.198;7.064;2022-10-16T02:13:43;14.20;99.90
7331;DHT22;3706;49.198;7.064;2022-10-16T02:16:14;14.10;99.90
7331;DHT22;3706;49.198;7.064;2022-10-16T02:18:41;14.10;99.90
7331;DHT22;3706;49.198;7.064;2022-10-16T02:21:15;14.20;99.90
7331;DHT22;3706;49.198;7.064;2022-10-16T02:23:49;14.10;99.90
7331;DHT22;3706;49.198;7.064;2022-10-16T02:26:23;14.20;99.90
7331;DHT22;3706;49.198;7.064;2022-10-16T02:28:56;14.10;99.90
7331;DHT22;3706;49.198;7.064;2022-10-16T02:31:28;14.10;99.90
7331;DHT22;3706;49.198;7.064;2022-10-16T02:34:01;14.10;99.90
7331;DHT22;3706;49.198;7.064;2022-10-16T02:36:31;14.10;99.90
7331;DHT22;3706;49.198;7.064;2022-10-16T02:38:59;14.10;99.90
7331;DHT22;3706;49.198;7.064;2022-10-16T02:41:26;14.10;99.90
7331;DHT22;3706;49.198;7.064;2022-10-16T02:43:54;14.10;99.90
7331;DHT22;3706;49.198;7.064;2022-10-16T02:46:21;14.10;99.90
7331;DHT22;3706;49.198;7.064;2022-10-16T02:48:50;14.10;99.90
7331;DHT22;3706;49.198;7.064;2022-10-16T02:51:16;14.10;99.90
7331;DHT22;3706;49.198;7.064;2022-10-16T02:53:43;14.20;99.90
7331;DHT22;3706;49.198;7.064;2022-10-16T02:56:10;14.20;99.90
7331;DHT22;3706;49.198;7.064;2022-10-16T02:58:37;14.20;99.90
7331;DHT22;3706;49.198;7.064;2022-10-16T03:01:04;14.10;99.90
7331;DHT22;3706;49.198;7.064;2022-10-16T03:03:31;14.10;99.90
7331;DHT22;3706;49.198;7.064;2022-10-16T03:05:59;14.10;99.90
7331;DHT22;3706;49.198;7.064;2022-10-16T03:08:26;14.10;99.90
7331;DHT22;3706;49.198;7.064;2022-10-16T03:10:53;14.10;99.90
7331;DHT22;3706;49.198;7.064;2022-10-16T03:13:20;14.10;99.90
7331;DHT22;3706;49.198;7.064;2022-10-16T03:15:47;14.10;99.90
7331;DHT22;3706;49.198;7.064;2022-10-16T03:18:14;14.20;99.90
7331;DHT22;3706;49.198;7.064;2022-10-16T03:20:42;14.20;99.90
7331;DHT22;3706;49.198;7.064;2022-10-16T03:23:11;14.20;99.90
7331;DHT22;3706;49.198;7.064;2022-10-16T03:25:38;14.20;99.90
7331;DHT22;3706;49.198;7.064;2022-10-16T03:28:05;14.20;99.90
7331;DHT22;3706;49.198;7.064;2022-10-16T03:30:31;14.20;99.90
7331;DHT22;3706;49.198;7.064;2022-10-16T03:32:58;14.10;99.90
7331;DHT22;3706;49.198;7.064;2022-10-16T03:35:25;14.00;99.90
7331;DHT22;3706;49.198;7.064;2022-10-16T03:37:52;14.00;99.90
7331;DHT22;3706;49.198;7.064;2022-10-16T03:40:21;14.00;99.90
7331;DHT22;3706;49.198;7.064;2022-10-16T03:42:48;13.90;99.90
7331;DHT22;3706;49.198;7.064;2022-10-16T03:45:14;13.90;99.90
7331;DHT22;3706;49.198;7.064;2022-10-16T03:47:41;13.90;99.90
7331;DHT22;3706;49.198;7.064;2022-10-16T03:50:08;13.90;99.90
7331;DHT22;3706;49.198;7.064;2022-10-16T03:52:35;13.90;99.90
7331;DHT22;3706;49.198;7.064;2022-10-16T03:55:02;13.90;99.90
7331;DHT22;3706;49.198;7.064;2022-10-16T03:57:31;13.90;99.90
7331;DHT22;3706;49.198;7.064;2022-10-16T03:59:58;13.90;99.90
7331;DHT22;3706;49.198;7.064;2022-10-16T04:02:24;13.90;99.90
7331;DHT22;3706;49.198;7.064;2022-10-16T04:04:51;13.90;99.90
7331;DHT22;3706;49.198;7.064;2022-10-16T04:07:18;13.80;99.90
7331;DHT22;3706;49.198;7.064;2022-10-16T04:09:45;13.80;99.90
7331;DHT22;3706;49.198;7.064;2022-10-16T04:12:12;13.80;99.90
7331;DHT22;3706;49.198;7.064;2022-10-16T04:14:41;13.80;99.90
7331;DHT22;3706;49.198;7.064;2022-10-16T04:17:07;13.80;99.90
7331;DHT22;3706;49.198;7.064;2022-10-16T04:19:37;13.80;99.90
7331;DHT22;3706;49.198;7.064;2022-10-16T04:22:04;13.80;99.90
7331;DHT22;3706;49.198;7.064;2022-10-16T04:24:31;13.80;99.90
7331;DHT22;3706;49.198;7.064;2022-10-16T04:26:58;13.80;99.90
7331;DHT22;3706;49.198;7.064;2022-10-16T04:29:25;13.80;99.90
7331;DHT22;3706;49.198;7.064;2022-10-16T04:31:53;13.80;99.90
7331;DHT22;3706;49.198;7.064;2022-10-16T04:34:20;13.90;99.90
7331;DHT22;3706;49.198;7.064;2022-10-16T04:36:47;13.80;99.90
7331;DHT22;3706;49.198;7.064;2022-10-16T04:39:15;13.90;99.90
7331;DHT22;3706;49.198;7.064;2022-10-16T04:41:42;13.90;99.90
7331;DHT22;3706;49.198;7.064;2022-10-16T04:44:09;13.90;99.90
7331;DHT22;3706;49.198;7.064;2022-10-16T04:46:36;13.90;99.90
7331;DHT22;3706;49.198;7.064;2022-10-16T04:49:04;13.90;99.90
7331;DHT22;3706;49.198;7.064;2022-10-16T04:51:31;13.90;99.90
7331;DHT22;3706;49.198;7.064;2022-10-16T04:53:58;13.90;99.90
7331;DHT22;3706;49.198;7.064;2022-10-16T04:56:25;13.90;99.90
7331;DHT22;3706;49.198;7.064;2022-10-16T04:58:52;13.90;99.90
7331;DHT22;3706;49.198;7.064;2022-10-16T05:01:19;13.90;99.90
7331;DHT22;3706;49.198;7.064;2022-10-16T05:03:46;13.90;99.90
7331;DHT22;3706;49.198;7.064;2022-10-16T05:06:14;13.90;99.90
7331;DHT22;3706;49.198;7.064;2022-10-16T05:08:41;13.90;99.90
7331;DHT22;3706;49.198;7.064;2022-10-16T05:11:08;13.90;99.90
7331;DHT22;3706;49.198;7.064;2022-10-16T05:13:35;13.90;99.90
7331;DHT22;3706;49.198;7.064;2022-10-16T05:16:01;13.90;99.90
7331;DHT22;3706;49.198;7.064;2022-10-16T05:18:28;13.80;99.90
7331;DHT22;3706;49.198;7.064;2022-10-16T05:20:55;13.80;99.90
7331;DHT22;3706;49.198;7.064;2022-10-16T05:23:23;13.90;99.90
7331;DHT22;3706;49.198;7.064;2022-10-16T05:25:54;13.90;99.90
7331;DHT22;3706;49.198;7.064;2022-10-16T05:28:23;13.80;99.90
7331;DHT22;3706;49.198;7.064;2022-10-16T05:30:50;13.90;99.90
7331;DHT22;3706;49.198;7.064;2022-10-16T05:33:20;13.90;99.90
7331;DHT22;3706;49.198;7.064;2022-10-16T05:35:47;13.90;99.90
7331;DHT22;3706;49.198;7.064;2022-10-16T05:38:15;13.80;99.90
7331;DHT22;3706;49.198;7.064;2022-10-16T05:40:49;13.80;99.90
7331;DHT22;3706;49.198;7.064;2022-10-16T05:43:16;13.80;99.90
7331;DHT22;3706;49.198;7.064;2022-10-16T05:45:43;13.80;99.90
7331;DHT22;3706;49.198;7.064;2022-10-16T05:48:11;13.80;99.90
7331;DHT22;3706;49.198;7.064;2022-10-16T05:50:38;13.80;99.90
7331;DHT22;3706;49.198;7.064;2022-10-16T05:53:05;13.80;99.90
7331;DHT22;3706;49.198;7.064;2022-10-16T05:55:31;13.80;99.90
7331;DHT22;3706;49.198;7.064;2022-10-16T05:58:00;13.90;99.90
7331;DHT22;3706;49.198;7.064;2022-10-16T06:00:27;13.90;99.90
7331;DHT22;3706;49.198;7.064;2022-10-16T06:02:54;13.90;99.90
7331;DHT22;3706;49.198;7.064;2022-10-16T06:05:20;13.90;99.90
7331;DHT22;3706;49.198;7.064;2022-10-16T06:07:47;13.90;99.90
7331;DHT22;3706;49.198;7.064;2022-10-16T06:10:14;13.90;99.90
7331;DHT22;3706;49.198;7.064;2022-10-16T06:12:42;13.90;99.90
7331;DHT22;3706;49.198;7.064;2022-10-16T06:15:10;13.90;99.90
7331;DHT22;3706;49.198;7.064;2022-10-16T06:17:37;13.90;99.90
7331;DHT22;3706;49.198;7.064;2022-10-16T06:20:05;13.90;99.90
7331;DHT22;3706;49.198;7.064;2022-10-16T06:22:32;14.00;99.90
7331;DHT22;3706;49.198;7.064;2022-10-16T06:24:59;14.00;99.90
7331;DHT22;3706;49.198;7.064;2022-10-16T06:27:25;14.00;99.90
7331;DHT22;3706;49.198;7.064;2022-10-16T06:29:52;14.10;99.90
7331;DHT22;3706;49.198;7.064;2022-10-16T06:32:21;14.10;99.90
7331;DHT22;3706;49.198;7.064;2022-10-16T06:34:48;14.10;99.90
7331;DHT22;3706;49.198;7.064;2022-10-16T06:37:15;14.20;99.90
7331;DHT22;3706;49.198;7.064;2022-10-16T06:39:41;14.20;99.90
7331;DHT22;3706;49.198;7.064;2022-10-16T06:42:08;14.20;99.90
7331;DHT22;3706;49.198;7.064;2022-10-16T06:44:35;14.20;99.90
7331;DHT22;3706;49.198;7.064;2022-10-16T06:47:02;14.20;99.90
7331;DHT22;3706;49.198;7.064;2022-10-16T06:49:30;14.20;99.90
7331;DHT22;3706;49.198;7.064;2022-10-16T06:51:57;14.20;99.90
7331;DHT22;3706;49.198;7.064;2022-10-16T06:54:24;14.30;99.90
7331;DHT22;3706;49.198;7.064;2022-10-16T06:56:51;14.30;99.90
7331;DHT22;3706;49.198;7.064;2022-10-16T06:59:19;14.30;99.90
7331;DHT22;3706;49.198;7.064;2022-10-16T07:01:47;14.40;99.90
7331;DHT22;3706;49.198;7.064;2022-10-16T07:04:14;14.40;99.90
7331;DHT22;3706;49.198;7.064;2022-10-16T07:06:42;14.50;99.90
7331;DHT22;3706;49.198;7.064;2022-10-16T07:09:10;14.70;99.90
7331;DHT22;3706;49.198;7.064;2022-10-16T07:11:38;14.80;99.90
7331;DHT22;3706;49.198;7.064;2022-10-16T07:14:15;15.00;99.90
7331;DHT22;3706;49.198;7.064;2022-10-16T07:16:42;15.20;99.90
7331;DHT22;3706;49.198;7.064;2022-10-16T07:19:09;15.20;99.90
7331;DHT22;3706;49.198;7.064;2022-10-16T07:21:37;15.30;99.90
7331;DHT22;3706;49.198;7.064;2022-10-16T07:24:10;15.40;99.90
7331;DHT22;3706;49.198;7.064;2022-10-16T07:26:38;15.40;99.90
7331;DHT22;3706;49.198;7.064;2022-10-16T07:29:06;15.40;99.90
7331;DHT22;3706;49.198;7.064;2022-10-16T07:31:33;15.50;99.90
7331;DHT22;3706;49.198;7.064;2022-10-16T07:34:00;15.50;99.90
7331;DHT22;3706;49.198;7.064;2022-10-16T07:36:27;15.60;99.90
7331;DHT22;3706;49.198;7.064;2022-10-16T07:38:54;15.70;99.90
7331;DHT22;3706;49.198;7.064;2022-10-16T07:41:22;15.80;99.90
7331;DHT22;3706;49.198;7.064;2022-10-16T07:43:50;15.90;99.90
7331;DHT22;3706;49.198;7.064;2022-10-16T07:46:18;16.10;99.90
7331;DHT22;3706;49.198;7.064;2022-10-16T07:48:45;16.20;99.90
7331;DHT22;3706;49.198;7.064;2022-10-16T07:51:14;16.40;99.90
7331;DHT22;3706;49.198;7.064;2022-10-16T07:53:41;16.60;99.90
7331;DHT22;3706;49.198;7.064;2022-10-16T07:56:08;16.90;99.90
7331;DHT22;3706;49.198;7.064;2022-10-16T07:58:37;17.10;99.90
7331;DHT22;3706;49.198;7.064;2022-10-16T08:01:05;17.20;99.90
7331;DHT22;3706;49.198;7.064;2022-10-16T08:03:32;17.30;99.90
7331;DHT22;3706;49.198;7.064;2022-10-16T08:05:59;17.40;99.90
7331;DHT22;3706;49.198;7.064;2022-10-16T08:08:27;17.40;99.90
7331;DHT22;3706;49.198;7.064;2022-10-16T08:10:54;17.50;99.90
7331;DHT22;3706;49.198;7.064;2022-10-16T08:13:21;17.50;99.90
7331;DHT22;3706;49.198;7.064;2022-10-16T08:15:49;17.50;99.90
7331;DHT22;3706;49.198;7.064;2022-10-16T08:18:16;17.60;99.90
7331;DHT22;3706;49.198;7.064;2022-10-16T08:20:43;17.70;99.90
7331;DHT22;3706;49.198;7.064;2022-10-16T08:23:11;17.80;99.90
7331;DHT22;3706;49.198;7.064;2022-10-16T08:25:39;17.90;99.90
7331;DHT22;3706;49.198;7.064;2022-10-16T08:28:07;18.10;99.90
7331;DHT22;3706;49.198;7.064;2022-10-16T08:30:34;18.30;99.90
7331;DHT22;3706;49.198;7.064;2022-10-16T08:33:03;18.40;99.90
7331;DHT22;3706;49.198;7.064;2022-10-16T08:35:30;18.50;99.90
7331;DHT22;3706;49.198;7.064;2022-10-16T08:37:57;18.50;99.90
7331;DHT22;3706;49.198;7.064;2022-10-16T08:40:26;18.60;99.90
7331;DHT22;3706;49.198;7.064;2022-10-16T08:45:55;18.90;99.90
7331;DHT22;3706;49.198;7.064;2022-10-16T08:48:33;19.10;99.90
7331;DHT22;3706;49.198;7.064;2022-10-16T08:51:02;19.20;99.90
7331;DHT22;3706;49.198;7.064;2022-10-16T08:53:33;19.20;99.90
7331;DHT22;3706;49.198;7.064;2022-10-16T08:56:05;19.20;99.90
7331;DHT22;3706;49.198;7.064;2022-10-16T08:58:32;19.30;99.90
7331;DHT22;3706;49.198;7.064;2022-10-16T09:01:01;19.60;99.90
7331;DHT22;3706;49.198;7.064;2022-10-16T09:03:43;19.80;99.90
7331;DHT22;3706;49.198;7.064;2022-10-16T09:06:40;20.30;99.90
7331;DHT22;3706;49.198;7.064;2022-10-16T09:09:24;20.70;99.90
7331;DHT22;3706;49.198;7.064;2022-10-16T09:11:56;21.00;99.90
7331;DHT22;3706;49.198;7.064;2022-10-16T09:14:50;21.00;99.90
7331;DHT22;3706;49.198;7.064;2022-10-16T09:17:34;21.00;99.90
7331;DHT22;3706;49.198;7.064;2022-10-16T09:20:18;20.90;99.90
7331;DHT22;3706;49.198;7.064;2022-10-16T09:22:46;20.70;99.90
7331;DHT22;3706;49.198;7.064;2022-10-16T09:25:15;20.70;99.90
7331;DHT22;3706;49.198;7.064;2022-10-16T09:27:45;20.70;99.90
7331;DHT22;3706;49.198;7.064;2022-10-16T09:30:15;20.90;99.90
7331;DHT22;3706;49.198;7.064;2022-10-16T09:32:44;21.00;99.90
7331;DHT22;3706;49.198;7.064;2022-10-16T09:35:16;21.00;99.90
7331;DHT22;3706;49.198;7.064;2022-10-16T09:37:46;20.80;99.90
7331;DHT22;3706;49.198;7.064;2022-10-16T09:40:24;20.70;99.90
7331;DHT22;3706;49.198;7.064;2022-10-16T09:42:54;20.60;99.90
7331;DHT22;3706;49.198;7.064;2022-10-16T09:45:23;20.70;99.90
7331;DHT22;3706;49.198;7.064;2022-10-16T09:47:51;20.70;99.90
7331;DHT22;3706;49.198;7.064;2022-10-16T09:50:25;20.90;99.90
7331;DHT22;3706;49.198;7.064;2022-10-16T09:53:03;21.00;99.90
7331;DHT22;3706;49.198;7.064;2022-10-16T09:55:31;21.00;99.90
7331;DHT22;3706;49.198;7.064;2022-10-16T09:57:58;20.70;99.90
7331;DHT22;3706;49.198;7.064;2022-10-16T10:00:25;20.50;99.90
7331;DHT22;3706;49.198;7.064;2022-10-16T10:02:52;20.40;99.90
7331;DHT22;3706;49.198;7.064;2022-10-16T10:05:23;20.50;99.90
7331;DHT22;3706;49.198;7.064;2022-10-16T10:07:56;20.60;99.90
7331;DHT22;3706;49.198;7.064;2022-10-16T10:10:25;20.70;99.90
7331;DHT22;3706;49.198;7.064;2022-10-16T10:12:53;20.80;99.90
7331;DHT22;3706;49.198;7.064;2022-10-16T10:15:21;20.90;99.90
7331;DHT22;3706;49.198;7.064;2022-10-16T10:17:51;20.90;99.90
7331;DHT22;3706;49.198;7.064;2022-10-16T10:20:25;21.20;99.90
7331;DHT22;3706;49.198;7.064;2022-10-16T10:22:53;21.60;99.90
7331;DHT22;3706;49.198;7.064;2022-10-16T10:25:42;22.00;99.90
7331;DHT22;3706;49.198;7.064;2022-10-16T10:28:22;22.20;99.90
7331;DHT22;3706;49.198;7.064;2022-10-16T10:30:58;22.20;99.90
7331;DHT22;3706;49.198;7.064;2022-10-16T10:33:33;22.00;99.90
7331;DHT22;3706;49.198;7.064;2022-10-16T10:36:16;21.70;99.90
7331;DHT22;3706;49.198;7.064;2022-10-16T10:38:50;21.50;99.90
7331;DHT22;3706;49.198;7.064;2022-10-16T10:44:16;21.40;99.90
7331;DHT22;3706;49.198;7.064;2022-10-16T10:46:50;21.40;99.90
7331;DHT22;3706;49.198;7.064;2022-10-16T10:49:31;21.30;99.90
7331;DHT22;3706;49.198;7.064;2022-10-16T10:52:13;21.30;99.90
7331;DHT22;3706;49.198;7.064;2022-10-16T10:54:54;21.20;99.90
7331;DHT22;3706;49.198;7.064;2022-10-16T10:57:30;21.10;99.90
7331;DHT22;3706;49.198;7.064;2022-10-16T11:00:12;21.00;99.90
7331;DHT22;3706;49.198;7.064;2022-10-16T11:02:50;21.00;99.90
7331;DHT22;3706;49.198;7.064;2022-10-16T11:05:31;21.00;99.90
7331;DHT22;3706;49.198;7.064;2022-10-16T11:08:08;21.00;99.90
7331;DHT22;3706;49.198;7.064;2022-10-16T11:10:45;20.90;99.90
7331;DHT22;3706;49.198;7.064;2022-10-16T11:13:28;20.70;99.90
7331;DHT22;3706;49.198;7.064;2022-10-16T11:15:59;20.60;99.90
7331;DHT22;3706;49.198;7.064;2022-10-16T11:18:32;20.50;99.90
7331;DHT22;3706;49.198;7.064;2022-10-16T11:21:04;20.60;99.90
7331;DHT22;3706;49.198;7.064;2022-10-16T11:23:40;20.60;99.90
7331;DHT22;3706;49.198;7.064;2022-10-16T11:26:14;20.60;99.90
7331;DHT22;3706;49.198;7.064;2022-10-16T11:28:45;20.80;99.90
7331;DHT22;3706;49.198;7.064;2022-10-16T11:31:17;21.00;99.90
7331;DHT22;3706;49.198;7.064;2022-10-16T11:33:50;21.20;99.90
7331;DHT22;3706;49.198;7.064;2022-10-16T11:36:22;21.40;99.90
7331;DHT22;3706;49.198;7.064;2022-10-16T11:38:55;21.40;99.90
7331;DHT22;3706;49.198;7.064;2022-10-16T11:41:28;21.60;99.90
7331;DHT22;3706;49.198;7.064;2022-10-16T11:44:16;21.70;99.90
7331;DHT22;3706;49.198;7.064;2022-10-16T11:46:50;21.80;99.90
7331;DHT22;3706;49.198;7.064;2022-10-16T11:49:21;21.90;99.90
7331;DHT22;3706;49.198;7.064;2022-10-16T11:51:56;22.00;99.90
7331;DHT22;3706;49.198;7.064;2022-10-16T11:54:32;22.10;99.90
7331;DHT22;3706;49.198;7.064;2022-10-16T11:57:08;22.10;99.90
7331;DHT22;3706;49.198;7.064;2022-10-16T11:59:43;22.00;99.90
7331;DHT22;3706;49.198;7.064;2022-10-16T12:02:32;21.90;99.90
7331;DHT22;3706;49.198;7.064;2022-10-16T12:05:11;21.80;99.90
7331;DHT22;3706;49.198;7.064;2022-10-16T12:07:48;21.70;99.90
7331;DHT22;3706;49.198;7.064;2022-10-16T12:10:24;21.50;99.90
7331;DHT22;3706;49.198;7.064;2022-10-16T12:12:52;21.30;99.90
7331;DHT22;3706;49.198;7.064;2022-10-16T12:15:23;21.20;99.90
7331;DHT22;3706;49.198;7.064;2022-10-16T12:17:50;21.00;99.90
7331;DHT22;3706;49.198;7.064;2022-10-16T12:20:29;21.00;99.90
7331;DHT22;3706;49.198;7.064;2022-10-16T12:23:00;20.90;99.90
7331;DHT22;3706;49.198;7.064;2022-10-16T12:25:31;20.70;99.90
7331;DHT22;3706;49.198;7.064;2022-10-16T12:28:01;20.70;99.90
7331;DHT22;3706;49.198;7.064;2022-10-16T12:30:30;20.70;99.90
7331;DHT22;3706;49.198;7.064;2022-10-16T12:32:59;20.60;99.90
7331;DHT22;3706;49.198;7.064;2022-10-16T12:35:29;20.50;99.90
7331;DHT22;3706;49.198;7.064;2022-10-16T12:38:12;20.50;99.90
7331;DHT22;3706;49.198;7.064;2022-10-16T12:40:43;20.30;99.90
7331;DHT22;3706;49.198;7.064;2022-10-16T12:43:24;20.20;99.90
7331;DHT22;3706;49.198;7.064;2022-10-16T12:46:00;20.10;99.90
7331;DHT22;3706;49.198;7.064;2022-10-16T12:48:27;20.00;99.90
7331;DHT22;3706;49.198;7.064;2022-10-16T12:50:54;19.90;99.90
7331;DHT22;3706;49.198;7.064;2022-10-16T12:53:22;19.90;99.90
7331;DHT22;3706;49.198;7.064;2022-10-16T12:55:59;19.80;99.90
7331;DHT22;3706;49.198;7.064;2022-10-16T12:58:42;19.90;99.90
7331;DHT22;3706;49.198;7.064;2022-10-16T13:01:25;20.00;99.90
7331;DHT22;3706;49.198;7.064;2022-10-16T13:04:19;20.10;99.90
7331;DHT22;3706;49.198;7.064;2022-10-16T13:06:53;20.10;99.90
7331;DHT22;3706;49.198;7.064;2022-10-16T13:09:43;20.20;99.90
7331;DHT22;3706;49.198;7.064;2022-10-16T13:15:27;20.40;99.90
7331;DHT22;3706;49.198;7.064;2022-10-16T13:18:04;20.60;99.90
7331;DHT22;3706;49.198;7.064;2022-10-16T13:20:46;20.80;99.90
7331;DHT22;3706;49.198;7.064;2022-10-16T13:23:21;21.00;99.90
7331;DHT22;3706;49.198;7.064;2022-10-16T13:26:00;21.30;99.90
7331;DHT22;3706;49.198;7.064;2022-10-16T13:28:32;21.50;99.90
7331;DHT22;3706;49.198;7.064;2022-10-16T13:31:01;21.60;99.90
7331;DHT22;3706;49.198;7.064;2022-10-16T13:33:32;21.60;99.90
7331;DHT22;3706;49.198;7.064;2022-10-16T13:36:00;21.60;99.90
7331;DHT22;3706;49.198;7.064;2022-10-16T13:38:29;21.60;99.90
7331;DHT22;3706;49.198;7.064;2022-10-16T13:40:59;21.70;99.90
7331;DHT22;3706;49.198;7.064;2022-10-16T13:43:31;21.90;99.90
7331;DHT22;3706;49.198;7.064;2022-10-16T13:46:01;22.10;99.90
7331;DHT22;3706;49.198;7.064;2022-10-16T13:48:28;22.10;99.90
7331;DHT22;3706;49.198;7.064;2022-10-16T13:51:04;22.10;99.90
7331;DHT22;3706;49.198;7.064;2022-10-16T13:53:32;21.90;99.90
7331;DHT22;3706;49.198;7.064;2022-10-16T13:56:04;21.80;99.90
7331;DHT22;3706;49.198;7.064;2022-10-16T13:58:32;21.80;99.90
7331;DHT22;3706;49.198;7.064;2022-10-16T14:01:01;21.80;99.90
7331;DHT22;3706;49.198;7.064;2022-10-16T14:03:29;21.70;99.90
7331;DHT22;3706;49.198;7.064;2022-10-16T14:05:58;21.70;99.90
7331;DHT22;3706;49.198;7.064;2022-10-16T14:08:27;21.60;99.90
7331;DHT22;3706;49.198;7.064;2022-10-16T14:10:56;21.50;99.90
7331;DHT22;3706;49.198;7.064;2022-10-16T14:13:30;21.40;99.90
7331;DHT22;3706;49.198;7.064;2022-10-16T14:16:02;21.40;99.90
7331;DHT22;3706;49.198;7.064;2022-10-16T14:18:32;21.50;99.90
7331;DHT22;3706;49.198;7.064;2022-10-16T14:21:04;21.60;99.90
7331;DHT22;3706;49.198;7.064;2022-10-16T14:23:35;21.70;99.90
7331;DHT22;3706;49.198;7.064;2022-10-16T14:26:16;21.70;99.90
7331;DHT22;3706;49.198;7.064;2022-10-16T14:28:44;21.70;99.90
7331;DHT22;3706;49.198;7.064;2022-10-16T14:31:26;21.50;99.90
7331;DHT22;3706;49.198;7.064;2022-10-16T14:33:54;21.20;99.90
7331;DHT22;3706;49.198;7.064;2022-10-16T14:36:21;21.00;99.90
7331;DHT22;3706;49.198;7.064;2022-10-16T14:38:54;20.80;99.90
7331;DHT22;3706;49.198;7.064;2022-10-16T14:41:23;20.60;99.90
7331;DHT22;3706;49.198;7.064;2022-10-16T14:43:53;20.30;99.90
7331;DHT22;3706;49.198;7.064;2022-10-16T14:46:28;20.20;99.90
7331;DHT22;3706;49.198;7.064;2022-10-16T14:49:00;20.00;99.90
7331;DHT22;3706;49.198;7.064;2022-10-16T14:51:29;20.00;99.90
7331;DHT22;3706;49.198;7.064;2022-10-16T14:53:56;19.90;99.90
7331;DHT22;3706;49.198;7.064;2022-10-16T14:56:25;20.00;99.90
7331;DHT22;3706;49.198;7.064;2022-10-16T14:58:55;20.00;99.90
7331;DHT22;3706;49.198;7.064;2022-10-16T15:01:23;20.00;99.90
7331;DHT22;3706;49.198;7.064;2022-10-16T15:03:50;20.10;99.90
7331;DHT22;3706;49.198;7.064;2022-10-16T15:06:20;20.20;99.90
7331;DHT22;3706;49.198;7.064;2022-10-16T15:08:47;20.20;99.90
7331;DHT22;3706;49.198;7.064;2022-10-16T15:11:15;20.20;99.90
7331;DHT22;3706;49.198;7.064;2022-10-16T15:13:43;20.30;99.90
7331;DHT22;3706;49.198;7.064;2022-10-16T15:16:11;20.30;99.90
7331;DHT22;3706;49.198;7.064;2022-10-16T15:18:40;20.30;99.90
7331;DHT22;3706;49.198;7.064;2022-10-16T15:21:07;20.20;99.90
7331;DHT22;3706;49.198;7.064;2022-10-16T15:23:34;20.20;99.90
7331;DHT22;3706;49.198;7.064;2022-10-16T15:26:01;20.10;99.90
7331;DHT22;3706;49.198;7.064;2022-10-16T15:28:28;20.00;99.90
7331;DHT22;3706;49.198;7.064;2022-10-16T15:30:56;19.90;99.90
7331;DHT22;3706;49.198;7.064;2022-10-16T15:33:25;19.70;99.90
7331;DHT22;3706;49.198;7.064;2022-10-16T15:35:55;19.60;99.90
7331;DHT22;3706;49.198;7.064;2022-10-16T15:38:22;19.50;99.90
7331;DHT22;3706;49.198;7.064;2022-10-16T15:40:49;19.40;99.90
7331;DHT22;3706;49.198;7.064;2022-10-16T15:43:16;19.20;99.90
7331;DHT22;3706;49.198;7.064;2022-10-16T15:45:44;19.10;99.90
7331;DHT22;3706;49.198;7.064;2022-10-16T15:48:12;18.90;99.90
7331;DHT22;3706;49.198;7.064;2022-10-16T15:50:40;18.70;99.90
7331;DHT22;3706;49.198;7.064;2022-10-16T15:53:09;18.50;99.90
7331;DHT22;3706;49.198;7.064;2022-10-16T15:55:36;18.30;99.90
7331;DHT22;3706;49.198;7.064;2022-10-16T15:58:04;18.10;99.90
7331;DHT22;3706;49.198;7.064;2022-10-16T16:00:31;17.90;99.90
7331;DHT22;3706;49.198;7.064;2022-10-16T16:02:58;17.80;99.90
7331;DHT22;3706;49.198;7.064;2022-10-16T16:05:25;17.60;99.90
7331;DHT22;3706;49.198;7.064;2022-10-16T16:07:53;17.40;99.90
7331;DHT22;3706;49.198;7.064;2022-10-16T16:10:21;17.30;99.90
7331;DHT22;3706;49.198;7.064;2022-10-16T16:12:48;17.10;99.90
7331;DHT22;3706;49.198;7.064;2022-10-16T16:15:18;17.00;99.90
7331;DHT22;3706;49.198;7.064;2022-10-16T16:17:45;16.80;99.90
7331;DHT22;3706;49.198;7.064;2022-10-16T16:20:12;16.70;99.90
7331;DHT22;3706;49.198;7.064;2022-10-16T16:22:39;16.50;99.90
7331;DHT22;3706;49.198;7.064;2022-10-16T16:25:07;16.40;99.90
7331;DHT22;3706;49.198;7.064;2022-10-16T16:27:36;16.30;99.90
7331;DHT22;3706;49.198;7.064;2022-10-16T16:30:05;16.20;99.90